Terminal Aerodrome Forecast
Issued by NWS Upton, NY

Home | Current Version | Previous Version | Text Only | Print | Product List | Glossary On
Versions: 1 2 3 4 5 6 7 8 9 10 11 12 13 14 15 16 17 18 19 20 21 22 23 24 25 26 27 28 29 30 31 32 33 34 35 36 37 38 39 40 41 42 43 44 45 46 47 48 49 50
000
FTUS41 KOKX 240539
TAFEWR
TAF
KEWR 240539Z 2406/2512 17004KT P6SM SCT007 BKN015
     FM240700 22004KT P6SM SCT008 OVC015
      TEMPO 2407/2411 5SM -DZ BR
     FM241400 26006KT P6SM SCT015 BKN025
     FM241800 31007KT P6SM BKN035
     FM242000 33009G15KT P6SM BKN045
     FM242300 34010G16KT P6SM SCT080
     FM250900 36009G15KT P6SM SCT080=

USA.gov is the U.S. government's official web portal to all federal, state and local government web resources and services.